首页
METAR-TAF:

METAR-TAF

机场 :

香槟沙隆, 法国

纬度: 48-46-34N, 经度: 004-11-04E, 海拔: 179米

当前天气观测

该预报发布于31分钟前的06:30 UTC
风速6节,风向东北
温度 -2°C
湿度 100%
气压 1009 hPa
能見度: 0300
冻雾

METAR: LFOK 170630Z AUTO 04006KT 0450 0300 R10/0550U R28/0600N FZFG VV/// M02/M02 Q1009 TEMPO 0200

时间: 08:01 (07:01 UTC)

预报

该预报发布于2小时和1分钟前的05:00 UTC
预报有效从17日的 06点(UTC)到 18日的 06点(UTC)
风速5节,风向东转东北
能見度: 0600
冻雾
短暂存在
从 17日的 06点(UTC)到 17日的 09点(UTC)
能見度: 0200
成为
从 17日的 09点(UTC)到 17日的 11点(UTC)
能見度: 5000
多云层高于300英尺
轻雾
成为
从 17日的 11点(UTC)到 17日的 13点(UTC)
能见度10公里或以上
成为
从 17日的 20点(UTC)到 17日的 23点(UTC)
能見度: 3000
轻雾
成为
从 18日的 04点(UTC)到 18日的 06点(UTC)
多云层高于500英尺
阴天层高于2000英尺
雨, 雪

TAF: LFOK 170500Z 1706/1806 06005KT 0600 FZFG VV/// TEMPO 1706/1709 0200 BECMG 1709/1711 5000 BR BKN003 BECMG 1711/1713 9999 NSW NSC BECMG 1720/1723 3000 BR BECMG 1804/1806 RASN BKN005 OVC020

超过4000个机场的气象观测和天气预报(METAR&TAF报告)。

可查询的气象台以黄色和红色小点在地图上表示。

将鼠标移到小点上方,可查看气象台名称。

然后点击查看天气观测和预报。

如需切换地图:点击带黑十字的绿色按钮放大地图;点击带横线的绿色按钮缩小地图;或者点击绿色箭头查看邻近地区的地图。


METAR-TAF: